Angel Albino Corzo International Airport
MMTG : now visible

Airfield :











YOU CAN JOIN US ON...

 
LOGIN :

Register | Disclaimer

   EN    FR    IT 

 









Legend :    VFR   Marginal VFR   IFR   Intensive IFR   Very Intensive IFR
Visi :
Ceiling :
>= 8 km
>= 3000ft
5 to 8 km
1000 to 3000 ft
1500m to 5 km
500 to 1000 ft
800 to 1500m
200 to 500 ft
< 800m
< 200 ft
Symbols :   Thunderstorms  Fog  Heavy snow  Heavy precipitations  Wind > 20 kt







- Airport Elevation : 1499 ft


MMTG - Angel Albino Corzo International

CURRENT METAR :
  • 221752Z 17005KT 7SM SCT030TCU 33/20 A2985 RMK SLP069 57013 911 8/200

EXPIRED METARs :
  • 221652Z 14007KT 8SM SCT025TCU 32/20 A2988 RMK 8/200
  • 221551Z 14006KT 7SM SCT014 SCT070 30/21 A2989 RMK 8/630 CU FRMG HZY

TAF TAF MMTG
Valid from the 22 at 18:00 until the 23 at 18:00 UTC


221622Z 2218/2318 14010KT P6SM SCT020 BKN250
FM222000 12012KT P6SM SCT025 BKN200
TEMPO 2222/2302 4SM TSRA BKN020CB
FM230300 00000KT 5SM HZ SCT080 BKN200
MMFR FIR / North America



MET'MAP, your aeronautical weather chart ! - Copyright ORBIFLY December 2007 - Disclaimer

ORBIFLY MET'MAP TEAM :

Programming & Development : Alexandra Zaïnal
Concept & Development : Baudouin d'Aumeries
Co-Development & Prog : Marc-Olivier Méhu
Technical & hardware support : Manuel Goepfert

Contact : metmap@orbifly.com




SOURCES & CREDITS :

   NOAA       Earth
Advisory